Cpo Baltimore — A8VD9 — position and weather

sailwx.info

Track history (hours):
 
Tides and Currents Weather Stations Pressure Air Temp Water Temp Dewpoint Dewpoint Depression Visibility Wind Speed Wind Dir Waves Ship Positions

Cpo Baltimore

Last reported at 2017-Oct-23 05:58 UTC. Time now 2017-Oct-23 06:27 UTC.
Position N 51°58' E 001°17'.

Length 262 m; draft 10.3 m.

Type: Ship (hazmat cat A). MMSI: 636091990.

Date/timePositionNaut miles runAvg speedWind from/ knotsBaromVisibWave heightAir tempDewpointWater temp
2017-Oct-23 05:58N 51°58' E 001°17'0 0.0
2017-Oct-23 05:28N 51°58' E 001°17'0 0.0
2017-Oct-23 04:58N 51°58' E 001°17'0 0.0
2017-Oct-23 04:28N 51°58' E 001°17'0 0.0
2017-Oct-23 03:58N 51°58' E 001°17'0 0.0
2017-Oct-23 03:28N 51°58' E 001°17'0 0.0
2017-Oct-23 02:55N 51°58' E 001°17'0 0.0
2017-Oct-23 02:28N 51°58' E 001°17'0 0.0
2017-Oct-23 01:58N 51°58' E 001°17'0 0.0
2017-Oct-23 01:28N 51°58' E 001°17'0 0.0
2017-Oct-23 00:58N 51°58' E 001°17'0 0.6
2017-Oct-23 00:30N 51°58' E 001°18'1 1.9
2017-Oct-23 00:00N 51°57' E 001°19'4 8.0
2017-Oct-22 23:30N 51°56' E 001°25'611.9
2017-Oct-22 23:00N 51°53' E 001°34'5 9.5
2017-Oct-22 22:30N 51°51' E 001°40'3 6.3
2017-Oct-22 22:01N 51°51' E 001°45'4 8.6
2017-Oct-22 21:31N 51°47' E 001°48'510.2
2017-Oct-22 21:00N 51°42' E 001°48'510.4
2017-Oct-22 20:31N 51°37' E 001°49'5 9.0
2017-Oct-22 20:01N 51°33' E 001°47'3 6.1
2017-Oct-22 19:31N 51°34' E 001°51'2 3.4
2017-Oct-22 18:59N 51°36' E 001°50'510.8
2017-Oct-22 18:30N 51°31' E 001°53'511.0
2017-Oct-22 18:01N 51°27' E 001°60'510.1
2017-Oct-22 17:31N 51°22' E 002°02'713.5
2017-Oct-22 17:00N 51°17' E 001°55'817.0
2017-Oct-22 16:30N 51°11' E 001°46'917.1
2017-Oct-22 16:00N 51°03' E 001°39'917.0
2017-Oct-22 15:30N 50°57' E 001°30'917.1
2017-Oct-22 15:00N 50°49' E 001°25'816.3
2017-Oct-22 14:30N 50°42' E 001°19'4115.9
2017-Oct-22 11:55N 50°24' E 000°21'716.9
2017-Oct-22 11:30N 50°22' E 000°10'917.2
2017-Oct-22 11:00N 50°20' W 000°03'917.7
2017-Oct-22 10:30N 50°17' W 000°16'918.3
2017-Oct-22 10:00N 50°15' W 000°30'1122.3
2017-Oct-22 09:30N 50°12' W 000°47'8522.8
2017-Oct-22 05:46N 49°49' W 002°55'520.9
2017-Oct-22 05:30N 49°46' W 003°02'1120.5
2017-Oct-22 05:00N 49°40' W 003°16'1020.6
2017-Oct-22 04:29N 49°35' W 003°29'4220.1
2017-Oct-22 02:26N 49°14' W 004°24'1519.3
2017-Oct-22 01:40N 49°07' W 004°44'419.2
2017-Oct-22 01:29N 49°05' W 004°48'918.8
2017-Oct-22 01:00N 49°00' W 005°00'918.4
2017-Oct-22 00:31N 48°56' W 005°12'918.1
2017-Oct-22 00:01N 48°51' W 005°24'917.7
2017-Oct-21 23:30N 48°46' W 005°35'917.1
2017-Oct-21 23:00N 48°39' W 005°43'1116.7
2017-Oct-21 22:22N 48°30' W 005°50'713.6
2017-Oct-21 21:51N 48°23' W 005°54'16616.9
2017-Oct-21 12:00N 45°54' W 007°42'37816.5 270 / 241021.110.8 17.0 9.017.2
2017-Oct-20 13:04N 39°48' W 009°50'718.7
2017-Oct-20 12:42N 39°41' W 009°50'418.3
2017-Oct-20 12:30N 39°37' W 009°50'917.9
2017-Oct-20 12:00N 39°28' W 009°50'2167.3
2017-Oct-20 12:00N 39°30' W 009°48'1121.7 250 / 121020.610.8 20.219.219.8
2017-Oct-20 11:30N 39°20' W 009°51'917.5
2017-Oct-20 11:00N 39°11' W 009°51'917.5
2017-Oct-20 10:30N 39°02' W 009°51'917.5
2017-Oct-20 10:00N 38°53' W 009°51'918.0
2017-Oct-20 09:30N 38°44' W 009°51'917.4
2017-Oct-20 09:00N 38°36' W 009°50'917.6
2017-Oct-20 08:30N 38°27' W 009°47'917.6
2017-Oct-20 08:00N 38°19' W 009°45'917.7
2017-Oct-20 07:30N 38°10' W 009°43'919.0
2017-Oct-20 07:00N 38°01' W 009°40'917.5
2017-Oct-20 06:30N 37°52' W 009°38'917.5
2017-Oct-20 06:00N 37°43' W 009°36'6616.8
2017-Oct-20 02:04N 36°42' W 009°03'617.7
2017-Oct-20 01:45N 36°41' W 008°57'418.0
2017-Oct-20 01:30N 36°39' W 008°52'1117.9
2017-Oct-20 00:54N 36°35' W 008°39'15416.9
2017-Oct-19 15:47N 35°57' W 005°34'414.3
2017-Oct-19 15:30N 35°59' W 005°30'714.9
2017-Oct-19 15:01N 36°01' W 005°21'714.8
2017-Oct-19 14:30N 36°02' W 005°12'4417.4
2017-Oct-19 12:00N 36°06' W 004°18'31115.7 260 / 181013.510.8 19.016.419.3
2017-Oct-18 16:13N 37°17' E 001°60'3716.6
2017-Oct-18 14:00N 37°26' E 002°45'918.1
2017-Oct-18 13:31N 37°28' E 002°55'1018.2
2017-Oct-18 12:57N 37°31' E 003°08'1313.4
2017-Oct-18 12:00N 37°30' E 003°24'1826.0 160 / 161014.610.8 24.416.123.9
2017-Oct-18 11:18N 37°38' E 003°44'518.1
2017-Oct-18 11:00N 37°39' E 003°51'3018.4
2017-Oct-18 09:22N 37°47' E 004°28'718.4
2017-Oct-18 09:00N 37°48' E 004°36'918.5
2017-Oct-18 08:30N 37°50' E 004°48'2518.3
2017-Oct-18 07:10N 37°56' E 005°18'318.3
2017-Oct-18 07:00N 37°57' E 005°21'1020.0
2017-Oct-18 06:30N 37°60' E 005°33'4318.5
2017-Oct-18 04:12N 38°10' E 006°26'618.3
2017-Oct-18 03:51N 38°12' E 006°34'9018.1
2017-Oct-17 22:53N 38°34' E 008°25'719.0
2017-Oct-17 22:29N 38°36' E 008°34'918.9
2017-Oct-17 22:00N 38°38' E 008°46'1118.5
2017-Oct-17 21:23N 38°42' E 008°60'718.4
2017-Oct-17 20:59N 38°45' E 009°08'918.3
2017-Oct-17 20:30N 38°48' E 009°19'1318.3
2017-Oct-17 19:47N 38°53' E 009°34'2218.5
2017-Oct-17 18:35N 39°02' E 010°00'118.4
2017-Oct-17 18:31N 39°03' E 010°02'918.4
2017-Oct-17 18:00N 39°07' E 010°13'1218.4
2017-Oct-17 17:21N 39°12' E 010°27'618.4
2017-Oct-17 17:01N 39°14' E 010°35'17118.4
2017-Oct-17 07:45N 40°22' E 013°58'418.2
2017-Oct-17 07:31N 40°24' E 014°03'918.4
2017-Oct-17 07:01N 40°27' E 014°14'1018.5
2017-Oct-17 06:30N 40°31' E 014°26'1118.1
2017-Oct-17 05:55N 40°35' E 014°39'711.6
2017-Oct-17 05:21N 40°40' E 014°45'43 1.8
2017-Oct-16 05:27N 39°57' E 014°53'916.0
2017-Oct-16 04:52N 39°48' E 014°58'1816.1
2017-Oct-16 03:44N 39°31' E 015°06'516.2
2017-Oct-16 03:25N 39°26' E 015°09'1216.2
2017-Oct-16 02:40N 39°15' E 015°14'316.2
2017-Oct-16 02:29N 39°12' E 015°16'816.1
2017-Oct-16 02:00N 39°05' E 015°19'816.0
2017-Oct-16 01:30N 38°58' E 015°23'816.3
2017-Oct-16 01:00N 38°50' E 015°27'816.6
2017-Oct-16 00:30N 38°42' E 015°31'816.1
2017-Oct-16 00:00N 38°35' E 015°34'815.8
2017-Oct-15 23:30N 38°28' E 015°38'815.7
2017-Oct-15 23:00N 38°20' E 015°42'713.2
2017-Oct-15 22:30N 38°15' E 015°38'816.0
2017-Oct-15 22:00N 38°07' E 015°36'815.9
2017-Oct-15 21:30N 37°59' E 015°36'815.2
2017-Oct-15 21:00N 37°53' E 015°42'816.1
2017-Oct-15 20:30N 37°48' E 015°51'816.2
2017-Oct-15 19:59N 37°44' E 015°60'815.9
2017-Oct-15 19:30N 37°42' E 016°09'37913.8
2017-Oct-14 16:08N 37°35' E 024°08'1119.0
2017-Oct-14 15:33N 37°43' E 024°17'119.1
2017-Oct-14 15:30N 37°44' E 024°18'  
Track history (hours):
 
Tides and Currents Weather Stations Pressure Air Temp Water Temp Dewpoint Dewpoint Depression Visibility Wind Speed Wind Dir Waves Ship Positions

Cpo Baltimore

Last reported at 2017-Oct-23 05:58 UTC. Time now 2017-Oct-23 06:27 UTC.
Position N 51°58' E 001°17'.

Length 262 m; draft 10.3 m.

Type: Ship (hazmat cat A). MMSI: 636091990.

Date/timePositionNaut miles runAvg speedWind from/ knotsBaromVisibWave heightAir tempDewpointWater temp
2017-Oct-23 05:58N 51°58' E 001°17'0 0.0
2017-Oct-23 05:28N 51°58' E 001°17'0 0.0
2017-Oct-23 04:58N 51°58' E 001°17'0 0.0
2017-Oct-23 04:28N 51°58' E 001°17'0 0.0
2017-Oct-23 03:58N 51°58' E 001°17'0 0.0
2017-Oct-23 03:28N 51°58' E 001°17'0 0.0
2017-Oct-23 02:55N 51°58' E 001°17'0 0.0
2017-Oct-23 02:28N 51°58' E 001°17'0 0.0
2017-Oct-23 01:58N 51°58' E 001°17'0 0.0
2017-Oct-23 01:28N 51°58' E 001°17'0 0.0
2017-Oct-23 00:58N 51°58' E 001°17'0 0.6
2017-Oct-23 00:30N 51°58' E 001°18'1 1.9
2017-Oct-23 00:00N 51°57' E 001°19'4 8.0
2017-Oct-22 23:30N 51°56' E 001°25'611.9
2017-Oct-22 23:00N 51°53' E 001°34'5 9.5
2017-Oct-22 22:30N 51°51' E 001°40'3 6.3
2017-Oct-22 22:01N 51°51' E 001°45'4 8.6
2017-Oct-22 21:31N 51°47' E 001°48'510.2
2017-Oct-22 21:00N 51°42' E 001°48'510.4
2017-Oct-22 20:31N 51°37' E 001°49'5 9.0
2017-Oct-22 20:01N 51°33' E 001°47'3 6.1
2017-Oct-22 19:31N 51°34' E 001°51'2 3.4
2017-Oct-22 18:59N 51°36' E 001°50'510.8
2017-Oct-22 18:30N 51°31' E 001°53'511.0
2017-Oct-22 18:01N 51°27' E 001°60'510.1
2017-Oct-22 17:31N 51°22' E 002°02'713.5
2017-Oct-22 17:00N 51°17' E 001°55'817.0
2017-Oct-22 16:30N 51°11' E 001°46'917.1
2017-Oct-22 16:00N 51°03' E 001°39'917.0
2017-Oct-22 15:30N 50°57' E 001°30'917.1
2017-Oct-22 15:00N 50°49' E 001°25'816.3
2017-Oct-22 14:30N 50°42' E 001°19'4115.9
2017-Oct-22 11:55N 50°24' E 000°21'716.9
2017-Oct-22 11:30N 50°22' E 000°10'917.2
2017-Oct-22 11:00N 50°20' W 000°03'917.7
2017-Oct-22 10:30N 50°17' W 000°16'918.3
2017-Oct-22 10:00N 50°15' W 000°30'1122.3
2017-Oct-22 09:30N 50°12' W 000°47'8522.8
2017-Oct-22 05:46N 49°49' W 002°55'520.9
2017-Oct-22 05:30N 49°46' W 003°02'1120.5
2017-Oct-22 05:00N 49°40' W 003°16'1020.6
2017-Oct-22 04:29N 49°35' W 003°29'4220.1
2017-Oct-22 02:26N 49°14' W 004°24'1519.3
2017-Oct-22 01:40N 49°07' W 004°44'419.2
2017-Oct-22 01:29N 49°05' W 004°48'918.8
2017-Oct-22 01:00N 49°00' W 005°00'918.4
2017-Oct-22 00:31N 48°56' W 005°12'918.1
2017-Oct-22 00:01N 48°51' W 005°24'917.7
2017-Oct-21 23:30N 48°46' W 005°35'917.1
2017-Oct-21 23:00N 48°39' W 005°43'1116.7
2017-Oct-21 22:22N 48°30' W 005°50'713.6
2017-Oct-21 21:51N 48°23' W 005°54'16616.9
2017-Oct-21 12:00N 45°54' W 007°42'37816.5 270 / 241021.110.8 17.0 9.017.2
2017-Oct-20 13:04N 39°48' W 009°50'718.7
2017-Oct-20 12:42N 39°41' W 009°50'418.3
2017-Oct-20 12:30N 39°37' W 009°50'917.9
2017-Oct-20 12:00N 39°28' W 009°50'2167.3
2017-Oct-20 12:00N 39°30' W 009°48'1121.7 250 / 121020.610.8 20.219.219.8
2017-Oct-20 11:30N 39°20' W 009°51'917.5
2017-Oct-20 11:00N 39°11' W 009°51'917.5
2017-Oct-20 10:30N 39°02' W 009°51'917.5
2017-Oct-20 10:00N 38°53' W 009°51'918.0
2017-Oct-20 09:30N 38°44' W 009°51'917.4
2017-Oct-20 09:00N 38°36' W 009°50'917.6
2017-Oct-20 08:30N 38°27' W 009°47'917.6
2017-Oct-20 08:00N 38°19' W 009°45'917.7
2017-Oct-20 07:30N 38°10' W 009°43'919.0
2017-Oct-20 07:00N 38°01' W 009°40'917.5
2017-Oct-20 06:30N 37°52' W 009°38'917.5
2017-Oct-20 06:00N 37°43' W 009°36'6616.8
2017-Oct-20 02:04N 36°42' W 009°03'617.7
2017-Oct-20 01:45N 36°41' W 008°57'418.0
2017-Oct-20 01:30N 36°39' W 008°52'1117.9
2017-Oct-20 00:54N 36°35' W 008°39'15416.9
2017-Oct-19 15:47N 35°57' W 005°34'414.3
2017-Oct-19 15:30N 35°59' W 005°30'714.9
2017-Oct-19 15:01N 36°01' W 005°21'714.8
2017-Oct-19 14:30N 36°02' W 005°12'4417.4
2017-Oct-19 12:00N 36°06' W 004°18'31115.7 260 / 181013.510.8 19.016.419.3
2017-Oct-18 16:13N 37°17' E 001°60'3716.6
2017-Oct-18 14:00N 37°26' E 002°45'918.1
2017-Oct-18 13:31N 37°28' E 002°55'1018.2
2017-Oct-18 12:57N 37°31' E 003°08'1313.4
2017-Oct-18 12:00N 37°30' E 003°24'1826.0 160 / 161014.610.8 24.416.123.9
2017-Oct-18 11:18N 37°38' E 003°44'518.1
2017-Oct-18 11:00N 37°39' E 003°51'3018.4
2017-Oct-18 09:22N 37°47' E 004°28'718.4
2017-Oct-18 09:00N 37°48' E 004°36'918.5
2017-Oct-18 08:30N 37°50' E 004°48'2518.3
2017-Oct-18 07:10N 37°56' E 005°18'318.3
2017-Oct-18 07:00N 37°57' E 005°21'1020.0
2017-Oct-18 06:30N 37°60' E 005°33'4318.5
2017-Oct-18 04:12N 38°10' E 006°26'618.3
2017-Oct-18 03:51N 38°12' E 006°34'9018.1
2017-Oct-17 22:53N 38°34' E 008°25'719.0
2017-Oct-17 22:29N 38°36' E 008°34'918.9
2017-Oct-17 22:00N 38°38' E 008°46'1118.5
2017-Oct-17 21:23N 38°42' E 008°60'718.4
2017-Oct-17 20:59N 38°45' E 009°08'918.3
2017-Oct-17 20:30N 38°48' E 009°19'1318.3
2017-Oct-17 19:47N 38°53' E 009°34'2218.5
2017-Oct-17 18:35N 39°02' E 010°00'118.4
2017-Oct-17 18:31N 39°03' E 010°02'918.4
2017-Oct-17 18:00N 39°07' E 010°13'1218.4
2017-Oct-17 17:21N 39°12' E 010°27'618.4
2017-Oct-17 17:01N 39°14' E 010°35'17118.4
2017-Oct-17 07:45N 40°22' E 013°58'418.2
2017-Oct-17 07:31N 40°24' E 014°03'918.4
2017-Oct-17 07:01N 40°27' E 014°14'1018.5
2017-Oct-17 06:30N 40°31' E 014°26'1118.1
2017-Oct-17 05:55N 40°35' E 014°39'711.6
2017-Oct-17 05:21N 40°40' E 014°45'43 1.8
2017-Oct-16 05:27N 39°57' E 014°53'916.0
2017-Oct-16 04:52N 39°48' E 014°58'1816.1
2017-Oct-16 03:44N 39°31' E 015°06'516.2
2017-Oct-16 03:25N 39°26' E 015°09'1216.2
2017-Oct-16 02:40N 39°15' E 015°14'316.2
2017-Oct-16 02:29N 39°12' E 015°16'816.1
2017-Oct-16 02:00N 39°05' E 015°19'816.0
2017-Oct-16 01:30N 38°58' E 015°23'816.3
2017-Oct-16 01:00N 38°50' E 015°27'816.6
2017-Oct-16 00:30N 38°42' E 015°31'816.1
2017-Oct-16 00:00N 38°35' E 015°34'815.8
2017-Oct-15 23:30N 38°28' E 015°38'815.7
2017-Oct-15 23:00N 38°20' E 015°42'713.2
2017-Oct-15 22:30N 38°15' E 015°38'816.0
2017-Oct-15 22:00N 38°07' E 015°36'815.9
2017-Oct-15 21:30N 37°59' E 015°36'815.2
2017-Oct-15 21:00N 37°53' E 015°42'816.1
2017-Oct-15 20:30N 37°48' E 015°51'816.2
2017-Oct-15 19:59N 37°44' E 015°60'815.9
2017-Oct-15 19:30N 37°42' E 016°09'37913.8
2017-Oct-14 16:08N 37°35' E 024°08'1119.0
2017-Oct-14 15:33N 37°43' E 024°17'119.1
2017-Oct-14 15:30N 37°44' E 024°18'  

Dump ship's entire track history